sensor_id;sensor_type;location;lat;lon;timestamp;P1;durP1;ratioP1;P2;durP2;ratioP2
24761;SDS011;12865;51.934;10.330;2023-03-31T00:00:10;2.88;;;1.55;;
24761;SDS011;12865;51.934;10.330;2023-03-31T00:02:57;3.10;;;1.33;;
24761;SDS011;12865;51.934;10.330;2023-03-31T00:05:43;5.35;;;1.55;;
24761;SDS011;12865;51.934;10.330;2023-03-31T00:11:21;3.30;;;1.50;;
24761;SDS011;12865;51.934;10.330;2023-03-31T00:14:07;5.95;;;1.48;;
24761;SDS011;12865;51.934;10.330;2023-03-31T00:16:53;5.15;;;1.63;;
24761;SDS011;12865;51.934;10.330;2023-03-31T00:19:39;4.65;;;1.33;;
24761;SDS011;12865;51.934;10.330;2023-03-31T00:22:26;5.40;;;1.40;;
24761;SDS011;12865;51.934;10.330;2023-03-31T00:25:12;4.55;;;1.45;;
24761;SDS011;12865;51.934;10.330;2023-03-31T00:27:58;5.47;;;1.52;;
24761;SDS011;12865;51.934;10.330;2023-03-31T00:30:44;3.85;;;1.45;;
24761;SDS011;12865;51.934;10.330;2023-03-31T00:33:31;4.22;;;1.10;;
24761;SDS011;12865;51.934;10.330;2023-03-31T00:36:17;5.53;;;1.58;;
24761;SDS011;12865;51.934;10.330;2023-03-31T00:39:12;4.97;;;1.50;;
24761;SDS011;12865;51.934;10.330;2023-03-31T00:42:03;4.43;;;1.40;;
24761;SDS011;12865;51.934;10.330;2023-03-31T00:48:06;5.47;;;1.60;;
24761;SDS011;12865;51.934;10.330;2023-03-31T00:50:59;5.18;;;1.65;;
24761;SDS011;12865;51.934;10.330;2023-03-31T00:56:17;5.80;;;1.30;;
24761;SDS011;12865;51.934;10.330;2023-03-31T00:59:03;4.82;;;1.20;;
24761;SDS011;12865;51.934;10.330;2023-03-31T01:01:53;4.03;;;1.40;;
24761;SDS011;12865;51.934;10.330;2023-03-31T01:04:44;6.07;;;1.35;;
24761;SDS011;12865;51.934;10.330;2023-03-31T01:07:36;5.45;;;1.35;;
24761;SDS011;12865;51.934;10.330;2023-03-31T01:10:27;5.95;;;1.38;;
24761;SDS011;12865;51.934;10.330;2023-03-31T01:13:14;4.45;;;1.30;;
24761;SDS011;12865;51.934;10.330;2023-03-31T01:16:02;4.43;;;1.58;;
24761;SDS011;12865;51.934;10.330;2023-03-31T01:18:47;4.55;;;1.40;;
24761;SDS011;12865;51.934;10.330;2023-03-31T01:25:03;3.58;;;1.30;;
24761;SDS011;12865;51.934;10.330;2023-03-31T01:37:26;3.40;;;1.25;;
24761;SDS011;12865;51.934;10.330;2023-03-31T01:44:06;2.92;;;1.23;;
24761;SDS011;12865;51.934;10.330;2023-03-31T01:50:35;5.55;;;1.25;;
24761;SDS011;12865;51.934;10.330;2023-03-31T01:53:30;7.03;;;1.77;;
24761;SDS011;12865;51.934;10.330;2023-03-31T01:56:33;5.82;;;1.60;;
24761;SDS011;12865;51.934;10.330;2023-03-31T01:59:32;6.40;;;1.65;;
24761;SDS011;12865;51.934;10.330;2023-03-31T02:02:27;5.15;;;1.50;;
24761;SDS011;12865;51.934;10.330;2023-03-31T02:05:18;3.10;;;1.30;;
24761;SDS011;12865;51.934;10.330;2023-03-31T02:08:07;6.22;;;1.58;;
24761;SDS011;12865;51.934;10.330;2023-03-31T02:10:57;5.43;;;1.75;;
24761;SDS011;12865;51.934;10.330;2023-03-31T02:13:44;3.40;;;1.35;;
24761;SDS011;12865;51.934;10.330;2023-03-31T02:16:32;5.97;;;1.88;;
24761;SDS011;12865;51.934;10.330;2023-03-31T02:19:21;4.55;;;1.48;;
24761;SDS011;12865;51.934;10.330;2023-03-31T02:22:09;8.07;;;1.52;;
24761;SDS011;12865;51.934;10.330;2023-03-31T02:24:56;6.28;;;1.70;;
24761;SDS011;12865;51.934;10.330;2023-03-31T02:27:51;4.93;;;1.60;;
24761;SDS011;12865;51.934;10.330;2023-03-31T02:30:45;5.47;;;1.80;;
24761;SDS011;12865;51.934;10.330;2023-03-31T02:33:37;7.35;;;1.50;;
24761;SDS011;12865;51.934;10.330;2023-03-31T02:36:23;5.93;;;1.60;;
24761;SDS011;12865;51.934;10.330;2023-03-31T02:39:11;3.85;;;1.10;;
24761;SDS011;12865;51.934;10.330;2023-03-31T02:42:00;4.15;;;1.40;;
24761;SDS011;12865;51.934;10.330;2023-03-31T02:44:51;6.72;;;1.75;;
24761;SDS011;12865;51.934;10.330;2023-03-31T02:47:37;5.85;;;1.55;;
24761;SDS011;12865;51.934;10.330;2023-03-31T02:50:23;5.57;;;1.70;;
24761;SDS011;12865;51.934;10.330;2023-03-31T02:53:28;4.70;;;1.40;;
24761;SDS011;12865;51.934;10.330;2023-03-31T02:56:43;7.30;;;1.88;;
24761;SDS011;12865;51.934;10.330;2023-03-31T03:03:00;4.38;;;1.60;;
24761;SDS011;12865;51.934;10.330;2023-03-31T03:12:05;4.03;;;1.33;;
24761;SDS011;12865;51.934;10.330;2023-03-31T03:15:17;7.45;;;1.80;;
24761;SDS011;12865;51.934;10.330;2023-03-31T03:18:08;4.78;;;1.95;;
24761;SDS011;12865;51.934;10.330;2023-03-31T03:20:54;4.97;;;1.50;;
24761;SDS011;12865;51.934;10.330;2023-03-31T03:23:40;7.47;;;1.80;;
24761;SDS011;12865;51.934;10.330;2023-03-31T03:26:26;6.93;;;1.90;;
24761;SDS011;12865;51.934;10.330;2023-03-31T03:29:12;5.32;;;1.40;;
24761;SDS011;12865;51.934;10.330;2023-03-31T03:31:59;6.68;;;1.60;;
24761;SDS011;12865;51.934;10.330;2023-03-31T03:34:44;6.13;;;2.10;;
24761;SDS011;12865;51.934;10.330;2023-03-31T03:37:30;4.85;;;1.40;;
24761;SDS011;12865;51.934;10.330;2023-03-31T03:40:16;5.63;;;1.50;;
24761;SDS011;12865;51.934;10.330;2023-03-31T03:43:02;5.22;;;1.52;;
24761;SDS011;12865;51.934;10.330;2023-03-31T03:45:48;7.90;;;1.70;;
24761;SDS011;12865;51.934;10.330;2023-03-31T03:48:34;6.55;;;1.60;;
24761;SDS011;12865;51.934;10.330;2023-03-31T03:51:20;5.30;;;1.90;;
24761;SDS011;12865;51.934;10.330;2023-03-31T03:54:06;6.07;;;1.85;;
24761;SDS011;12865;51.934;10.330;2023-03-31T03:56:52;5.85;;;1.50;;
24761;SDS011;12865;51.934;10.330;2023-03-31T03:59:37;6.57;;;1.67;;
24761;SDS011;12865;51.934;10.330;2023-03-31T04:02:23;3.22;;;1.52;;
24761;SDS011;12865;51.934;10.330;2023-03-31T04:05:09;5.05;;;1.63;;
24761;SDS011;12865;51.934;10.330;2023-03-31T04:07:55;4.95;;;1.52;;
24761;SDS011;12865;51.934;10.330;2023-03-31T04:10:44;6.43;;;1.80;;
24761;SDS011;12865;51.934;10.330;2023-03-31T04:13:32;5.10;;;1.75;;
24761;SDS011;12865;51.934;10.330;2023-03-31T04:16:18;5.00;;;1.75;;
24761;SDS011;12865;51.934;10.330;2023-03-31T04:19:04;5.65;;;1.75;;
24761;SDS011;12865;51.934;10.330;2023-03-31T04:21:49;8.93;;;1.98;;
24761;SDS011;12865;51.934;10.330;2023-03-31T04:24:43;6.70;;;1.88;;
24761;SDS011;12865;51.934;10.330;2023-03-31T04:27:30;3.13;;;1.50;;
24761;SDS011;12865;51.934;10.330;2023-03-31T04:30:18;6.80;;;1.73;;
24761;SDS011;12865;51.934;10.330;2023-03-31T04:33:09;5.10;;;1.50;;
24761;SDS011;12865;51.934;10.330;2023-03-31T04:35:55;4.72;;;1.45;;
24761;SDS011;12865;51.934;10.330;2023-03-31T04:38:40;6.50;;;1.80;;
24761;SDS011;12865;51.934;10.330;2023-03-31T04:41:26;8.40;;;2.03;;
24761;SDS011;12865;51.934;10.330;2023-03-31T04:44:12;4.57;;;1.75;;
24761;SDS011;12865;51.934;10.330;2023-03-31T04:46:58;3.90;;;1.55;;
24761;SDS011;12865;51.934;10.330;2023-03-31T04:49:47;5.25;;;1.67;;
24761;SDS011;12865;51.934;10.330;2023-03-31T04:52:32;7.60;;;1.73;;
24761;SDS011;12865;51.934;10.330;2023-03-31T04:55:18;7.25;;;1.67;;
24761;SDS011;12865;51.934;10.330;2023-03-31T04:58:04;3.95;;;1.40;;
24761;SDS011;12865;51.934;10.330;2023-03-31T05:00:50;7.72;;;1.80;;
24761;SDS011;12865;51.934;10.330;2023-03-31T05:03:36;8.85;;;1.88;;
24761;SDS011;12865;51.934;10.330;2023-03-31T05:06:21;5.78;;;1.45;;
24761;SDS011;12865;51.934;10.330;2023-03-31T05:09:07;4.78;;;1.33;;
24761;SDS011;12865;51.934;10.330;2023-03-31T05:11:55;3.80;;;1.40;;
24761;SDS011;12865;51.934;10.330;2023-03-31T05:14:41;3.78;;;1.52;;
24761;SDS011;12865;51.934;10.330;2023-03-31T05:17:29;3.05;;;1.38;;
24761;SDS011;12865;51.934;10.330;2023-03-31T05:20:17;2.80;;;1.27;;
24761;SDS011;12865;51.934;10.330;2023-03-31T05:23:04;4.53;;;1.30;;
24761;SDS011;12865;51.934;10.330;2023-03-31T05:25:49;5.05;;;1.55;;
24761;SDS011;12865;51.934;10.330;2023-03-31T05:28:35;4.40;;;1.30;;
24761;SDS011;12865;51.934;10.330;2023-03-31T05:31:21;5.30;;;1.75;;
24761;SDS011;12865;51.934;10.330;2023-03-31T05:34:07;6.90;;;1.50;;
24761;SDS011;12865;51.934;10.330;2023-03-31T05:36:53;5.38;;;1.50;;
24761;SDS011;12865;51.934;10.330;2023-03-31T05:39:38;4.30;;;1.35;;
24761;SDS011;12865;51.934;10.330;2023-03-31T05:42:24;5.50;;;1.65;;
24761;SDS011;12865;51.934;10.330;2023-03-31T05:45:10;4.22;;;1.75;;
24761;SDS011;12865;51.934;10.330;2023-03-31T05:47:56;4.05;;;1.65;;
24761;SDS011;12865;51.934;10.330;2023-03-31T05:50:42;6.57;;;1.50;;
24761;SDS011;12865;51.934;10.330;2023-03-31T05:53:28;4.70;;;1.38;;
24761;SDS011;12865;51.934;10.330;2023-03-31T05:56:14;3.05;;;1.10;;
24761;SDS011;12865;51.934;10.330;2023-03-31T05:59:00;3.80;;;1.17;;
24761;SDS011;12865;51.934;10.330;2023-03-31T06:01:46;4.28;;;1.40;;
24761;SDS011;12865;51.934;10.330;2023-03-31T06:04:32;5.00;;;1.10;;
24761;SDS011;12865;51.934;10.330;2023-03-31T06:07:17;4.78;;;1.35;;
24761;SDS011;12865;51.934;10.330;2023-03-31T06:10:03;3.95;;;1.30;;
24761;SDS011;12865;51.934;10.330;2023-03-31T06:12:52;3.47;;;1.20;;
24761;SDS011;12865;51.934;10.330;2023-03-31T06:15:37;4.32;;;1.13;;
24761;SDS011;12865;51.934;10.330;2023-03-31T06:18:23;3.25;;;1.00;;
24761;SDS011;12865;51.934;10.330;2023-03-31T06:21:13;3.45;;;1.05;;
24761;SDS011;12865;51.934;10.330;2023-03-31T06:24:01;2.13;;;0.80;;
24761;SDS011;12865;51.934;10.330;2023-03-31T06:26:46;3.22;;;0.98;;
24761;SDS011;12865;51.934;10.330;2023-03-31T06:29:32;3.78;;;1.33;;
24761;SDS011;12865;51.934;10.330;2023-03-31T06:32:18;6.90;;;1.38;;
24761;SDS011;12865;51.934;10.330;2023-03-31T06:35:04;4.40;;;1.33;;
24761;SDS011;12865;51.934;10.330;2023-03-31T06:37:50;5.05;;;1.38;;
24761;SDS011;12865;51.934;10.330;2023-03-31T06:40:35;5.70;;;1.20;;
24761;SDS011;12865;51.934;10.330;2023-03-31T06:43:21;5.95;;;1.30;;
24761;SDS011;12865;51.934;10.330;2023-03-31T06:46:07;2.95;;;1.25;;
24761;SDS011;12865;51.934;10.330;2023-03-31T06:48:53;5.55;;;1.92;;
24761;SDS011;12865;51.934;10.330;2023-03-31T06:51:39;7.78;;;2.05;;
24761;SDS011;12865;51.934;10.330;2023-03-31T06:54:25;4.95;;;1.65;;
24761;SDS011;12865;51.934;10.330;2023-03-31T06:57:10;4.45;;;1.52;;
24761;SDS011;12865;51.934;10.330;2023-03-31T06:59:57;5.00;;;1.58;;
24761;SDS011;12865;51.934;10.330;2023-03-31T07:02:42;6.00;;;1.83;;
24761;SDS011;12865;51.934;10.330;2023-03-31T07:05:28;5.18;;;1.27;;
24761;SDS011;12865;51.934;10.330;2023-03-31T07:08:14;5.25;;;1.40;;
24761;SDS011;12865;51.934;10.330;2023-03-31T07:11:02;6.65;;;1.55;;
24761;SDS011;12865;51.934;10.330;2023-03-31T07:13:47;5.40;;;1.50;;
24761;SDS011;12865;51.934;10.330;2023-03-31T07:16:33;4.45;;;1.65;;
24761;SDS011;12865;51.934;10.330;2023-03-31T07:19:20;4.03;;;1.55;;
24761;SDS011;12865;51.934;10.330;2023-03-31T07:22:06;6.45;;;1.52;;
24761;SDS011;12865;51.934;10.330;2023-03-31T07:24:52;4.68;;;1.55;;
24761;SDS011;12865;51.934;10.330;2023-03-31T07:27:38;4.10;;;1.10;;
24761;SDS011;12865;51.934;10.330;2023-03-31T07:30:24;3.85;;;1.40;;
24761;SDS011;12865;51.934;10.330;2023-03-31T07:33:10;4.00;;;1.35;;
24761;SDS011;12865;51.934;10.330;2023-03-31T07:35:56;5.38;;;1.65;;
24761;SDS011;12865;51.934;10.330;2023-03-31T07:38:42;5.47;;;1.48;;
24761;SDS011;12865;51.934;10.330;2023-03-31T07:41:30;4.03;;;1.63;;
24761;SDS011;12865;51.934;10.330;2023-03-31T07:44:16;4.68;;;1.30;;
24761;SDS011;12865;51.934;10.330;2023-03-31T07:47:03;5.38;;;1.40;;
24761;SDS011;12865;51.934;10.330;2023-03-31T07:49:50;3.33;;;1.70;;
24761;SDS011;12865;51.934;10.330;2023-03-31T07:52:36;4.97;;;1.55;;
24761;SDS011;12865;51.934;10.330;2023-03-31T07:55:21;3.70;;;1.40;;
24761;SDS011;12865;51.934;10.330;2023-03-31T07:58:08;7.32;;;2.00;;
24761;SDS011;12865;51.934;10.330;2023-03-31T08:00:56;6.43;;;1.60;;
24761;SDS011;12865;51.934;10.330;2023-03-31T08:03:42;6.30;;;1.80;;
24761;SDS011;12865;51.934;10.330;2023-03-31T08:06:28;4.55;;;1.35;;
24761;SDS011;12865;51.934;10.330;2023-03-31T08:09:14;7.50;;;1.50;;
24761;SDS011;12865;51.934;10.330;2023-03-31T08:12:00;3.88;;;1.38;;
24761;SDS011;12865;51.934;10.330;2023-03-31T08:14:46;3.28;;;1.27;;
24761;SDS011;12865;51.934;10.330;2023-03-31T08:17:32;2.58;;;1.17;;
24761;SDS011;12865;51.934;10.330;2023-03-31T08:20:17;3.03;;;1.10;;
24761;SDS011;12865;51.934;10.330;2023-03-31T08:23:03;4.97;;;1.20;;
24761;SDS011;12865;51.934;10.330;2023-03-31T08:25:53;2.35;;;1.08;;
24761;SDS011;12865;51.934;10.330;2023-03-31T08:28:38;1.88;;;1.08;;
24761;SDS011;12865;51.934;10.330;2023-03-31T08:31:24;3.20;;;1.05;;
24761;SDS011;12865;51.934;10.330;2023-03-31T08:34:13;4.28;;;1.50;;
24761;SDS011;12865;51.934;10.330;2023-03-31T08:36:58;2.65;;;1.15;;
24761;SDS011;12865;51.934;10.330;2023-03-31T08:39:44;2.53;;;0.95;;
24761;SDS011;12865;51.934;10.330;2023-03-31T08:45:33;4.60;;;1.70;;
24761;SDS011;12865;51.934;10.330;2023-03-31T08:51:12;2.92;;;1.05;;
24761;SDS011;12865;51.934;10.330;2023-03-31T08:54:05;2.88;;;1.10;;
24761;SDS011;12865;51.934;10.330;2023-03-31T08:56:55;3.75;;;1.30;;
24761;SDS011;12865;51.934;10.330;2023-03-31T08:59:42;3.13;;;1.42;;
24761;SDS011;12865;51.934;10.330;2023-03-31T09:02:33;3.15;;;1.27;;
24761;SDS011;12865;51.934;10.330;2023-03-31T09:08:45;5.07;;;1.33;;
24761;SDS011;12865;51.934;10.330;2023-03-31T09:11:35;2.85;;;1.15;;
24761;SDS011;12865;51.934;10.330;2023-03-31T09:17:36;3.88;;;1.38;;
24761;SDS011;12865;51.934;10.330;2023-03-31T09:20:33;1.52;;;1.05;;
24761;SDS011;12865;51.934;10.330;2023-03-31T09:23:28;1.60;;;0.93;;
24761;SDS011;12865;51.934;10.330;2023-03-31T09:26:28;1.83;;;1.00;;
24761;SDS011;12865;51.934;10.330;2023-03-31T09:29:39;3.28;;;1.20;;
24761;SDS011;12865;51.934;10.330;2023-03-31T09:32:29;4.18;;;1.10;;
24761;SDS011;12865;51.934;10.330;2023-03-31T09:35:17;2.35;;;1.30;;
24761;SDS011;12865;51.934;10.330;2023-03-31T09:38:05;1.88;;;0.95;;
24761;SDS011;12865;51.934;10.330;2023-03-31T09:40:53;3.28;;;1.20;;
24761;SDS011;12865;51.934;10.330;2023-03-31T09:43:41;2.22;;;0.80;;
24761;SDS011;12865;51.934;10.330;2023-03-31T09:49:16;2.38;;;0.95;;
24761;SDS011;12865;51.934;10.330;2023-03-31T09:52:06;2.17;;;1.13;;
24761;SDS011;12865;51.934;10.330;2023-03-31T09:55:01;1.65;;;0.90;;
24761;SDS011;12865;51.934;10.330;2023-03-31T09:57:49;1.98;;;0.98;;
24761;SDS011;12865;51.934;10.330;2023-03-31T10:00:36;2.13;;;1.27;;
24761;SDS011;12865;51.934;10.330;2023-03-31T10:03:26;0.88;;;0.80;;
24761;SDS011;12865;51.934;10.330;2023-03-31T10:06:13;2.63;;;0.95;;
24761;SDS011;12865;51.934;10.330;2023-03-31T10:09:02;2.92;;;1.20;;
24761;SDS011;12865;51.934;10.330;2023-03-31T10:11:51;2.05;;;1.00;;
24761;SDS011;12865;51.934;10.330;2023-03-31T10:14:46;1.15;;;0.80;;
24761;SDS011;12865;51.934;10.330;2023-03-31T10:17:33;1.20;;;0.88;;
24761;SDS011;12865;51.934;10.330;2023-03-31T10:20:37;1.63;;;0.77;;
24761;SDS011;12865;51.934;10.330;2023-03-31T10:23:28;2.50;;;1.30;;
24761;SDS011;12865;51.934;10.330;2023-03-31T10:26:20;1.50;;;1.50;;
24761;SDS011;12865;51.934;10.330;2023-03-31T10:29:14;1.85;;;1.10;;
24761;SDS011;12865;51.934;10.330;2023-03-31T10:35:23;1.17;;;1.17;;
24761;SDS011;12865;51.934;10.330;2023-03-31T10:38:14;2.45;;;1.60;;
24761;SDS011;12865;51.934;10.330;2023-03-31T10:41:07;2.25;;;0.80;;
24761;SDS011;12865;51.934;10.330;2023-03-31T10:43:54;2.25;;;0.80;;
24761;SDS011;12865;51.934;10.330;2023-03-31T10:46:45;1.58;;;0.90;;
24761;SDS011;12865;51.934;10.330;2023-03-31T10:49:38;1.92;;;1.35;;
24761;SDS011;12865;51.934;10.330;2023-03-31T10:52:25;2.05;;;0.90;;
24761;SDS011;12865;51.934;10.330;2023-03-31T10:55:21;2.92;;;1.10;;
24761;SDS011;12865;51.934;10.330;2023-03-31T11:01:23;2.00;;;1.10;;
24761;SDS011;12865;51.934;10.330;2023-03-31T11:07:19;0.82;;;0.82;;
24761;SDS011;12865;51.934;10.330;2023-03-31T11:13:21;1.63;;;0.82;;
24761;SDS011;12865;51.934;10.330;2023-03-31T11:16:28;2.15;;;0.80;;
24761;SDS011;12865;51.934;10.330;2023-03-31T11:28:26;1.30;;;0.60;;
24761;SDS011;12865;51.934;10.330;2023-03-31T11:37:32;1.75;;;0.80;;
24761;SDS011;12865;51.934;10.330;2023-03-31T11:43:57;2.00;;;0.90;;
24761;SDS011;12865;51.934;10.330;2023-03-31T11:46:52;1.00;;;0.80;;
24761;SDS011;12865;51.934;10.330;2023-03-31T11:49:44;4.32;;;0.95;;
24761;SDS011;12865;51.934;10.330;2023-03-31T11:52:40;1.73;;;0.73;;
24761;SDS011;12865;51.934;10.330;2023-03-31T11:55:30;2.47;;;0.80;;
24761;SDS011;12865;51.934;10.330;2023-03-31T11:58:19;2.63;;;0.88;;
24761;SDS011;12865;51.934;10.330;2023-03-31T12:04:20;1.27;;;0.80;;
24761;SDS011;12865;51.934;10.330;2023-03-31T12:10:23;2.10;;;0.80;;
24761;SDS011;12865;51.934;10.330;2023-03-31T12:13:34;1.80;;;1.05;;
24761;SDS011;12865;51.934;10.330;2023-03-31T12:19:35;3.47;;;0.90;;
24761;SDS011;12865;51.934;10.330;2023-03-31T12:22:31;5.97;;;1.10;;
24761;SDS011;12865;51.934;10.330;2023-03-31T12:25:22;3.90;;;1.40;;
24761;SDS011;12865;51.934;10.330;2023-03-31T12:28:10;2.80;;;1.20;;
24761;SDS011;12865;51.934;10.330;2023-03-31T12:30:56;5.00;;;1.60;;
24761;SDS011;12865;51.934;10.330;2023-03-31T12:33:55;6.25;;;1.75;;
24761;SDS011;12865;51.934;10.330;2023-03-31T12:36:59;3.65;;;1.55;;
24761;SDS011;12865;51.934;10.330;2023-03-31T12:40:00;2.42;;;1.27;;
24761;SDS011;12865;51.934;10.330;2023-03-31T12:43:05;4.72;;;2.10;;
24761;SDS011;12865;51.934;10.330;2023-03-31T12:52:06;2.63;;;1.30;;
24761;SDS011;12865;51.934;10.330;2023-03-31T12:57:24;3.10;;;1.90;;
24761;SDS011;12865;51.934;10.330;2023-03-31T13:00:24;3.38;;;1.60;;
24761;SDS011;12865;51.934;10.330;2023-03-31T13:12:05;3.08;;;1.30;;
24761;SDS011;12865;51.934;10.330;2023-03-31T13:14:52;2.72;;;1.30;;
24761;SDS011;12865;51.934;10.330;2023-03-31T13:17:46;3.10;;;1.25;;
24761;SDS011;12865;51.934;10.330;2023-03-31T13:20:41;1.55;;;1.10;;
24761;SDS011;12865;51.934;10.330;2023-03-31T13:23:28;2.35;;;1.13;;
24761;SDS011;12865;51.934;10.330;2023-03-31T13:26:33;1.55;;;0.80;;
24761;SDS011;12865;51.934;10.330;2023-03-31T13:29:43;1.20;;;0.70;;
24761;SDS011;12865;51.934;10.330;2023-03-31T13:32:30;3.28;;;0.93;;
24761;SDS011;12865;51.934;10.330;2023-03-31T13:35:16;1.75;;;1.00;;
24761;SDS011;12865;51.934;10.330;2023-03-31T13:38:14;2.38;;;1.20;;
24761;SDS011;12865;51.934;10.330;2023-03-31T13:54:20;3.83;;;1.00;;
24761;SDS011;12865;51.934;10.330;2023-03-31T13:57:26;3.20;;;1.05;;
24761;SDS011;12865;51.934;10.330;2023-03-31T14:00:20;1.85;;;0.82;;
24761;SDS011;12865;51.934;10.330;2023-03-31T14:03:34;2.47;;;1.17;;
24761;SDS011;12865;51.934;10.330;2023-03-31T14:09:39;6.57;;;2.40;;
24761;SDS011;12865;51.934;10.330;2023-03-31T14:12:35;4.97;;;1.30;;
24761;SDS011;12865;51.934;10.330;2023-03-31T14:15:22;2.28;;;1.10;;
24761;SDS011;12865;51.934;10.330;2023-03-31T14:18:09;2.00;;;1.00;;
24761;SDS011;12865;51.934;10.330;2023-03-31T14:24:13;2.67;;;1.35;;
24761;SDS011;12865;51.934;10.330;2023-03-31T14:39:24;4.78;;;1.25;;
24761;SDS011;12865;51.934;10.330;2023-03-31T14:42:15;2.17;;;1.25;;
24761;SDS011;12865;51.934;10.330;2023-03-31T14:47:57;3.35;;;1.23;;
24761;SDS011;12865;51.934;10.330;2023-03-31T14:50:46;3.97;;;1.20;;
24761;SDS011;12865;51.934;10.330;2023-03-31T14:53:34;1.85;;;1.20;;
24761;SDS011;12865;51.934;10.330;2023-03-31T14:56:21;1.52;;;1.10;;
24761;SDS011;12865;51.934;10.330;2023-03-31T14:59:15;1.83;;;0.80;;
24761;SDS011;12865;51.934;10.330;2023-03-31T15:02:06;1.92;;;1.08;;
24761;SDS011;12865;51.934;10.330;2023-03-31T15:05:00;1.00;;;1.00;;
24761;SDS011;12865;51.934;10.330;2023-03-31T15:07:49;1.60;;;0.73;;
24761;SDS011;12865;51.934;10.330;2023-03-31T15:10:37;1.52;;;0.85;;
24761;SDS011;12865;51.934;10.330;2023-03-31T15:13:33;1.83;;;0.63;;
24761;SDS011;12865;51.934;10.330;2023-03-31T15:19:29;2.40;;;1.20;;
24761;SDS011;12865;51.934;10.330;2023-03-31T15:22:18;2.33;;;1.00;;
24761;SDS011;12865;51.934;10.330;2023-03-31T15:25:10;2.55;;;0.88;;
24761;SDS011;12865;51.934;10.330;2023-03-31T15:28:05;3.45;;;0.75;;
24761;SDS011;12865;51.934;10.330;2023-03-31T15:30:52;1.42;;;1.00;;
24761;SDS011;12865;51.934;10.330;2023-03-31T15:33:38;1.20;;;0.90;;
24761;SDS011;12865;51.934;10.330;2023-03-31T15:36:26;2.88;;;1.20;;
24761;SDS011;12865;51.934;10.330;2023-03-31T15:39:14;3.53;;;1.50;;
24761;SDS011;12865;51.934;10.330;2023-03-31T15:42:00;2.03;;;1.08;;
24761;SDS011;12865;51.934;10.330;2023-03-31T15:44:54;3.13;;;1.10;;
24761;SDS011;12865;51.934;10.330;2023-03-31T15:47:48;2.10;;;1.02;;
24761;SDS011;12865;51.934;10.330;2023-03-31T15:50:36;2.72;;;1.63;;
24761;SDS011;12865;51.934;10.330;2023-03-31T15:53:36;4.53;;;1.40;;
24761;SDS011;12865;51.934;10.330;2023-03-31T15:56:33;1.85;;;1.40;;
24761;SDS011;12865;51.934;10.330;2023-03-31T15:59:23;2.10;;;1.08;;
24761;SDS011;12865;51.934;10.330;2023-03-31T16:02:10;2.40;;;1.17;;
24761;SDS011;12865;51.934;10.330;2023-03-31T16:05:00;2.72;;;0.80;;
24761;SDS011;12865;51.934;10.330;2023-03-31T16:07:47;3.38;;;2.20;;
24761;SDS011;12865;51.934;10.330;2023-03-31T16:10:33;4.32;;;1.80;;
24761;SDS011;12865;51.934;10.330;2023-03-31T16:13:19;4.93;;;1.58;;
24761;SDS011;12865;51.934;10.330;2023-03-31T16:16:07;6.03;;;1.20;;
24761;SDS011;12865;51.934;10.330;2023-03-31T16:19:03;3.37;;;1.30;;
24761;SDS011;12865;51.934;10.330;2023-03-31T16:21:54;4.70;;;1.50;;
24761;SDS011;12865;51.934;10.330;2023-03-31T16:24:46;3.22;;;1.42;;
24761;SDS011;12865;51.934;10.330;2023-03-31T16:27:36;4.97;;;1.40;;
24761;SDS011;12865;51.934;10.330;2023-03-31T16:30:35;4.90;;;1.67;;
24761;SDS011;12865;51.934;10.330;2023-03-31T16:33:23;5.10;;;2.10;;
24761;SDS011;12865;51.934;10.330;2023-03-31T16:36:09;4.45;;;1.45;;
24761;SDS011;12865;51.934;10.330;2023-03-31T16:38:57;6.30;;;1.40;;
24761;SDS011;12865;51.934;10.330;2023-03-31T16:41:44;5.32;;;1.30;;
24761;SDS011;12865;51.934;10.330;2023-03-31T16:44:30;5.30;;;1.65;;
24761;SDS011;12865;51.934;10.330;2023-03-31T16:47:15;3.53;;;1.55;;
24761;SDS011;12865;51.934;10.330;2023-03-31T16:50:01;7.95;;;1.60;;
24761;SDS011;12865;51.934;10.330;2023-03-31T16:52:51;3.42;;;1.50;;
24761;SDS011;12865;51.934;10.330;2023-03-31T16:55:36;8.10;;;1.80;;
24761;SDS011;12865;51.934;10.330;2023-03-31T16:58:23;5.28;;;1.50;;
24761;SDS011;12865;51.934;10.330;2023-03-31T17:01:09;6.13;;;2.45;;
24761;SDS011;12865;51.934;10.330;2023-03-31T17:03:55;7.55;;;2.35;;
24761;SDS011;12865;51.934;10.330;2023-03-31T17:06:41;6.95;;;3.78;;
24761;SDS011;12865;51.934;10.330;2023-03-31T17:09:27;6.90;;;2.00;;
24761;SDS011;12865;51.934;10.330;2023-03-31T17:12:12;6.38;;;1.70;;
24761;SDS011;12865;51.934;10.330;2023-03-31T17:14:58;3.20;;;1.58;;
24761;SDS011;12865;51.934;10.330;2023-03-31T17:17:44;3.03;;;1.42;;
24761;SDS011;12865;51.934;10.330;2023-03-31T17:20:30;5.35;;;1.65;;
24761;SDS011;12865;51.934;10.330;2023-03-31T17:23:17;6.78;;;1.75;;
24761;SDS011;12865;51.934;10.330;2023-03-31T17:26:02;4.20;;;1.70;;
24761;SDS011;12865;51.934;10.330;2023-03-31T17:28:50;4.28;;;1.45;;
24761;SDS011;12865;51.934;10.330;2023-03-31T17:31:37;2.33;;;1.23;;
24761;SDS011;12865;51.934;10.330;2023-03-31T17:34:22;8.30;;;1.25;;
24761;SDS011;12865;51.934;10.330;2023-03-31T17:37:08;3.55;;;1.40;;
24761;SDS011;12865;51.934;10.330;2023-03-31T17:39:54;2.58;;;1.08;;
24761;SDS011;12865;51.934;10.330;2023-03-31T17:42:40;2.63;;;0.98;;
24761;SDS011;12865;51.934;10.330;2023-03-31T17:45:25;2.00;;;0.95;;
24761;SDS011;12865;51.934;10.330;2023-03-31T17:48:11;2.55;;;0.90;;
24761;SDS011;12865;51.934;10.330;2023-03-31T17:50:57;2.72;;;1.10;;
24761;SDS011;12865;51.934;10.330;2023-03-31T17:53:48;2.58;;;1.30;;
24761;SDS011;12865;51.934;10.330;2023-03-31T17:56:35;3.65;;;1.17;;
24761;SDS011;12865;51.934;10.330;2023-03-31T17:59:21;2.67;;;1.20;;
24761;SDS011;12865;51.934;10.330;2023-03-31T18:02:08;1.75;;;0.93;;
24761;SDS011;12865;51.934;10.330;2023-03-31T18:04:57;4.55;;;0.90;;
24761;SDS011;12865;51.934;10.330;2023-03-31T18:07:43;2.15;;;0.90;;
24761;SDS011;12865;51.934;10.330;2023-03-31T18:10:29;1.65;;;0.73;;
24761;SDS011;12865;51.934;10.330;2023-03-31T18:13:15;1.77;;;0.90;;
24761;SDS011;12865;51.934;10.330;2023-03-31T18:16:02;1.05;;;0.80;;
24761;SDS011;12865;51.934;10.330;2023-03-31T18:18:48;3.53;;;1.30;;
24761;SDS011;12865;51.934;10.330;2023-03-31T18:21:34;1.40;;;0.85;;
24761;SDS011;12865;51.934;10.330;2023-03-31T18:24:00;4.05;;;1.50;;
24761;SDS011;12865;51.934;10.330;2023-03-31T18:26:29;2.67;;;0.90;;
24761;SDS011;12865;51.934;10.330;2023-03-31T18:28:54;4.03;;;1.02;;
24761;SDS011;12865;51.934;10.330;2023-03-31T18:31:20;2.15;;;1.00;;
24761;SDS011;12865;51.934;10.330;2023-03-31T18:33:46;3.63;;;1.48;;
24761;SDS011;12865;51.934;10.330;2023-03-31T18:36:14;3.25;;;1.02;;
24761;SDS011;12865;51.934;10.330;2023-03-31T18:38:41;3.00;;;1.05;;
24761;SDS011;12865;51.934;10.330;2023-03-31T18:41:07;4.05;;;1.23;;
24761;SDS011;12865;51.934;10.330;2023-03-31T18:43:33;2.55;;;1.17;;
24761;SDS011;12865;51.934;10.330;2023-03-31T18:45:58;2.42;;;1.20;;
24761;SDS011;12865;51.934;10.330;2023-03-31T18:48:25;4.03;;;1.20;;
24761;SDS011;12865;51.934;10.330;2023-03-31T18:50:51;4.68;;;1.30;;
24761;SDS011;12865;51.934;10.330;2023-03-31T18:53:17;4.18;;;1.20;;
24761;SDS011;12865;51.934;10.330;2023-03-31T18:55:48;2.05;;;1.35;;
24761;SDS011;12865;51.934;10.330;2023-03-31T18:58:14;3.30;;;1.20;;
24761;SDS011;12865;51.934;10.330;2023-03-31T19:00:40;3.70;;;1.10;;
24761;SDS011;12865;51.934;10.330;2023-03-31T19:03:06;3.80;;;1.17;;
24761;SDS011;12865;51.934;10.330;2023-03-31T19:05:31;3.85;;;1.20;;